QFA742 YBSU-YBHM
Flight info
| Callsign | QFA742 |
|---|---|
| Flight time | N/A |
| Altitude | 36000 |
| Route | SU DCT TAPET Q67 OVRON |
| Aircraft | B742/H-SDFHIRWXY/L |
Departure
| Time | 2026-04-25 22:40 |
|---|---|
| Airport | Sunshine Coast Airport (YBSU) |
Arrival
| Time | N/A |
|---|---|
| Airport | Hamilton Island Airport (YBHM) |
| Time | Latitude | Longitude | Altitude | Speed | Heading |
|---|---|---|---|---|---|
| 2026-04-25 22:20 | -26.60653 | 153.08926 | 21 ft | 0 kts | 285° |
| 2026-04-25 22:31 | -26.60655 | 153.08936 | 21 ft | 2 kts | 285° |
| 2026-04-25 22:31 | -26.60659 | 153.08951 | 21 ft | 2 kts | 285° |
| 2026-04-25 22:31 | -26.60663 | 153.08968 | 21 ft | 2 kts | 287° |
| 2026-04-25 22:31 | -26.60668 | 153.08983 | 21 ft | 2 kts | 302° |
| 2026-04-25 22:32 | -26.60677 | 153.08995 | 21 ft | 2 kts | 314° |
| 2026-04-25 22:32 | -26.60689 | 153.09006 | 21 ft | 2 kts | 326° |
| 2026-04-25 22:32 | -26.60702 | 153.09015 | 21 ft | 2 kts | 339° |
| 2026-04-25 22:32 | -26.60711 | 153.09018 | 21 ft | 0 kts | 346° |
| 2026-04-25 22:33 | -26.60715 | 153.09018 | 21 ft | 0 kts | 347° |
| 2026-04-25 22:33 | -26.60714 | 153.09018 | 21 ft | 0 kts | 347° |
| 2026-04-25 22:35 | -26.60697 | 153.09018 | 21 ft | 5 kts | 12° |
| 2026-04-25 22:35 | -26.60629 | 153.09038 | 21 ft | 12 kts | 16° |
| 2026-04-25 22:35 | -26.60521 | 153.09070 | 21 ft | 17 kts | 6° |
| 2026-04-25 22:35 | -26.60411 | 153.09012 | 21 ft | 19 kts | 322° |
| 2026-04-25 22:36 | -26.60285 | 153.08903 | 21 ft | 26 kts | 322° |
| 2026-04-25 22:36 | -26.60118 | 153.08760 | 21 ft | 34 kts | 323° |
| 2026-04-25 22:36 | -26.59906 | 153.08578 | 21 ft | 40 kts | 322° |
| 2026-04-25 22:36 | -26.59682 | 153.08386 | 21 ft | 40 kts | 322° |
| 2026-04-25 22:37 | -26.59484 | 153.08215 | 25 ft | 21 kts | 324° |
| 2026-04-25 22:37 | -26.59405 | 153.08194 | 25 ft | 11 kts | 43° |
| 2026-04-25 22:37 | -26.59342 | 153.08278 | 27 ft | 16 kts | 40° |
| 2026-04-25 22:37 | -26.59272 | 153.08266 | 28 ft | 12 kts | 321° |
| 2026-04-25 22:38 | -26.58528 | 153.07623 | 17 ft | 19 kts | 322° |
| 2026-04-25 22:38 | -26.58448 | 153.07492 | 15 ft | 20 kts | 286° |
| 2026-04-25 22:38 | -26.58385 | 153.07420 | 15 ft | 8 kts | 342° |
| 2026-04-25 22:38 | -26.58348 | 153.07455 | 15 ft | 8 kts | 98° |
| 2026-04-25 22:39 | -26.58382 | 153.07500 | 15 ft | 6 kts | 142° |
| 2026-04-25 22:39 | -26.58540 | 153.07632 | 18 ft | 65 kts | 142° |
| 2026-04-25 22:39 | -26.59106 | 153.08121 | 28 ft | 137 kts | 144° |
| 2026-04-25 22:39 | -26.59943 | 153.08849 | 500 ft | 156 kts | 145° |
| 2026-04-25 22:40 | -26.60777 | 153.09576 | 1274 ft | 159 kts | 139° |
| 2026-04-25 22:40 | -26.61344 | 153.10638 | 1937 ft | 171 kts | 97° |
| 2026-04-25 22:40 | -26.61021 | 153.11955 | 2423 ft | 188 kts | 56° |
| 2026-04-25 22:40 | -26.59875 | 153.12706 | 2898 ft | 205 kts | 14° |
| 2026-04-25 22:41 | -26.58456 | 153.12430 | 3370 ft | 219 kts | 333° |
| 2026-04-25 22:41 | -26.57214 | 153.11374 | 3741 ft | 230 kts | 328° |
| 2026-04-25 22:41 | -26.55770 | 153.10590 | 4100 ft | 236 kts | 344° |
| 2026-04-25 22:41 | -26.54164 | 153.09999 | 4446 ft | 248 kts | 348° |
| 2026-04-25 22:42 | -26.52463 | 153.09442 | 4791 ft | 263 kts | 348° |
| 2026-04-25 22:42 | -26.50637 | 153.08865 | 5141 ft | 282 kts | 348° |
| 2026-04-25 22:42 | -26.48708 | 153.08261 | 5780 ft | 291 kts | 348° |
| 2026-04-25 22:42 | -26.46748 | 153.07646 | 6646 ft | 291 kts | 348° |
| 2026-04-25 22:43 | -26.44803 | 153.07039 | 7473 ft | 291 kts | 348° |
| 2026-04-25 22:43 | -26.42869 | 153.06438 | 8238 ft | 293 kts | 348° |
| 2026-04-25 22:43 | -26.40894 | 153.05823 | 8979 ft | 296 kts | 348° |
| 2026-04-25 22:43 | -26.38909 | 153.05205 | 9698 ft | 299 kts | 348° |
| 2026-04-25 22:44 | -26.36890 | 153.04576 | 10395 ft | 302 kts | 347° |
| 2026-04-25 22:44 | -26.34870 | 153.03947 | 11111 ft | 303 kts | 347° |
| 2026-04-25 22:44 | -26.32821 | 153.03310 | 11792 ft | 306 kts | 347° |
| 2026-04-25 22:44 | -26.30765 | 153.02670 | 12458 ft | 309 kts | 346° |
| 2026-04-25 22:45 | -26.28686 | 153.02025 | 13107 ft | 311 kts | 346° |
| 2026-04-25 22:45 | -26.26621 | 153.01382 | 13737 ft | 313 kts | 346° |
| 2026-04-25 22:45 | -26.24514 | 153.00728 | 14364 ft | 316 kts | 345° |
| 2026-04-25 22:45 | -26.22382 | 153.00064 | 14871 ft | 322 kts | 345° |
| 2026-04-25 22:46 | -26.20170 | 152.99377 | 15245 ft | 334 kts | 345° |
| 2026-04-25 22:46 | -26.17890 | 152.98671 | 15610 ft | 346 kts | 345° |
| 2026-04-25 22:46 | -26.15525 | 152.97939 | 15980 ft | 358 kts | 345° |
| 2026-04-25 22:46 | -26.13106 | 152.97188 | 16346 ft | 370 kts | 345° |
| 2026-04-25 22:47 | -26.10644 | 152.96178 | 16711 ft | 382 kts | 333° |
| 2026-04-25 22:47 | -26.08328 | 152.94577 | 17082 ft | 395 kts | 325° |
| 2026-04-25 22:47 | -26.06090 | 152.92772 | 17577 ft | 404 kts | 323° |
| 2026-04-25 22:47 | -26.03823 | 152.90897 | 18394 ft | 404 kts | 323° |
| 2026-04-25 22:48 | -26.01552 | 152.89035 | 19044 ft | 408 kts | 323° |
| 2026-04-25 22:48 | -25.99243 | 152.87161 | 19646 ft | 414 kts | 323° |
| 2026-04-25 22:48 | -25.96910 | 152.85281 | 20283 ft | 418 kts | 323° |
| 2026-04-25 22:48 | -25.94554 | 152.83391 | 20944 ft | 421 kts | 323° |
| 2026-04-25 22:49 | -25.92169 | 152.81479 | 21504 ft | 426 kts | 322° |
| 2026-04-25 22:49 | -25.89772 | 152.79559 | 22079 ft | 430 kts | 322° |
| 2026-04-25 22:49 | -25.87339 | 152.77609 | 22705 ft | 432 kts | 322° |
| 2026-04-25 22:49 | -25.84891 | 152.75647 | 23241 ft | 437 kts | 321° |
| 2026-04-25 22:50 | -25.82417 | 152.73666 | 23753 ft | 441 kts | 321° |
| 2026-04-25 22:50 | -25.79911 | 152.71663 | 24340 ft | 443 kts | 321° |
| 2026-04-25 22:50 | -25.77411 | 152.69665 | 24867 ft | 447 kts | 321° |
| 2026-04-25 22:50 | -25.74881 | 152.67645 | 25384 ft | 450 kts | 320° |
| 2026-04-25 22:51 | -25.72336 | 152.65613 | 25876 ft | 454 kts | 320° |
| 2026-04-25 22:51 | -25.69776 | 152.63568 | 26369 ft | 457 kts | 320° |
| 2026-04-25 22:51 | -25.67171 | 152.61493 | 26888 ft | 459 kts | 320° |
| 2026-04-25 22:51 | -25.64560 | 152.59412 | 27272 ft | 464 kts | 319° |
| 2026-04-25 22:52 | -25.61969 | 152.57347 | 27764 ft | 465 kts | 319° |
| 2026-04-25 22:52 | -25.59315 | 152.55234 | 28156 ft | 470 kts | 319° |
| 2026-04-25 22:52 | -25.56647 | 152.53110 | 28593 ft | 472 kts | 319° |
| 2026-04-25 22:52 | -25.54843 | 152.51674 | 28916 ft | 473 kts | 319° |
| 2026-04-25 22:53 | -25.51259 | 152.48827 | 29458 ft | 476 kts | 318° |
| 2026-04-25 22:53 | -25.48581 | 152.46698 | 29869 ft | 478 kts | 318° |
| 2026-04-25 22:53 | -25.45850 | 152.44530 | 30237 ft | 482 kts | 317° |
| 2026-04-25 22:53 | -25.43132 | 152.42372 | 30557 ft | 486 kts | 317° |
| 2026-04-25 22:54 | -25.40355 | 152.40169 | 30965 ft | 487 kts | 317° |
| 2026-04-25 22:54 | -25.37626 | 152.38007 | 31409 ft | 488 kts | 317° |
| 2026-04-25 22:54 | -25.34867 | 152.35823 | 31844 ft | 489 kts | 317° |
| 2026-04-25 22:54 | -25.32102 | 152.33637 | 32107 ft | 494 kts | 317° |
| 2026-04-25 22:55 | -25.29278 | 152.31424 | 32385 ft | 498 kts | 317° |
| 2026-04-25 22:55 | -25.26450 | 152.29216 | 32892 ft | 497 kts | 317° |
| 2026-04-25 22:55 | -25.23652 | 152.27023 | 33272 ft | 498 kts | 316° |
| 2026-04-25 22:55 | -25.20795 | 152.24773 | 33453 ft | 504 kts | 316° |
| 2026-04-25 22:56 | -25.17925 | 152.22510 | 33857 ft | 505 kts | 316° |
| 2026-04-25 22:56 | -25.15078 | 152.20267 | 34188 ft | 507 kts | 316° |
| 2026-04-25 22:56 | -25.12203 | 152.17998 | 34505 ft | 510 kts | 316° |
| 2026-04-25 22:56 | -25.09307 | 152.15715 | 34812 ft | 512 kts | 316° |
| 2026-04-25 22:57 | -25.06405 | 152.13431 | 35216 ft | 512 kts | 316° |
| 2026-04-25 22:57 | -25.03532 | 152.11171 | 35630 ft | 511 kts | 316° |
| 2026-04-25 22:57 | -25.00623 | 152.08888 | 36006 ft | 512 kts | 316° |
| 2026-04-25 22:57 | -24.97707 | 152.06599 | 36132 ft | 515 kts | 316° |
| 2026-04-25 22:58 | -24.91876 | 152.02028 | 36150 ft | 519 kts | 316° |
| 2026-04-25 22:58 | -24.86018 | 151.97450 | 36142 ft | 513 kts | 316° |
| 2026-04-25 22:59 | -24.80224 | 151.92923 | 36148 ft | 513 kts | 316° |
| 2026-04-25 22:59 | -24.74404 | 151.88376 | 36148 ft | 514 kts | 316° |
| 2026-04-25 23:00 | -24.68539 | 151.83800 | 36136 ft | 515 kts | 316° |
| 2026-04-25 23:00 | -24.62705 | 151.79260 | 36137 ft | 512 kts | 316° |
| 2026-04-25 23:01 | -24.56898 | 151.74744 | 36142 ft | 512 kts | 316° |
| 2026-04-25 23:01 | -24.51088 | 151.70230 | 36129 ft | 510 kts | 316° |
| 2026-04-25 23:02 | -24.45304 | 151.65741 | 36135 ft | 509 kts | 316° |
| 2026-04-25 23:02 | -24.39530 | 151.61266 | 36126 ft | 508 kts | 316° |
| 2026-04-25 23:03 | -24.33781 | 151.56813 | 36130 ft | 508 kts | 316° |
| 2026-04-25 23:03 | -24.27998 | 151.52341 | 36126 ft | 508 kts | 316° |
| 2026-04-25 23:04 | -24.23213 | 151.48645 | 36126 ft | 506 kts | 316° |
| 2026-04-25 23:04 | -24.16507 | 151.43469 | 36122 ft | 505 kts | 316° |
| 2026-04-25 23:05 | -24.10735 | 151.39018 | 36115 ft | 506 kts | 316° |
| 2026-04-25 23:05 | -24.05000 | 151.34605 | 36111 ft | 505 kts | 316° |
| 2026-04-25 23:06 | -23.99245 | 151.30220 | 36105 ft | 504 kts | 316° |
| 2026-04-25 23:06 | -23.93493 | 151.25830 | 36106 ft | 505 kts | 316° |
| 2026-04-25 23:07 | -23.87737 | 151.21423 | 36112 ft | 502 kts | 316° |
| 2026-04-25 23:07 | -23.81858 | 151.17308 | 36111 ft | 508 kts | 321° |
| 2026-04-25 23:08 | -23.75674 | 151.13422 | 36110 ft | 508 kts | 322° |
| 2026-04-25 23:08 | -23.69598 | 151.09586 | 36108 ft | 507 kts | 321° |
| 2026-04-25 23:09 | -23.63508 | 151.05693 | 36106 ft | 507 kts | 321° |
| 2026-04-25 23:09 | -23.57418 | 151.01790 | 36100 ft | 507 kts | 321° |
| 2026-04-25 23:10 | -23.51390 | 150.97929 | 36099 ft | 506 kts | 321° |
| 2026-04-25 23:10 | -23.45352 | 150.94069 | 36096 ft | 505 kts | 321° |
| 2026-04-25 23:11 | -23.39300 | 150.90199 | 36098 ft | 505 kts | 321° |
| 2026-04-25 23:11 | -23.33277 | 150.86354 | 36094 ft | 507 kts | 321° |
| 2026-04-25 23:12 | -23.27216 | 150.82495 | 36094 ft | 502 kts | 321° |
| 2026-04-25 23:12 | -23.21208 | 150.78667 | 36096 ft | 503 kts | 321° |
| 2026-04-25 23:13 | -23.15175 | 150.74828 | 36095 ft | 503 kts | 321° |
| 2026-04-25 23:13 | -23.09112 | 150.70973 | 36099 ft | 503 kts | 321° |
| 2026-04-25 23:14 | -23.03105 | 150.67163 | 36092 ft | 500 kts | 321° |
| 2026-04-25 23:14 | -22.97086 | 150.63344 | 36096 ft | 501 kts | 321° |
| 2026-04-25 23:15 | -22.91070 | 150.59532 | 36095 ft | 501 kts | 321° |
| 2026-04-25 23:15 | -22.85035 | 150.55711 | 36099 ft | 501 kts | 321° |
| 2026-04-25 23:16 | -22.79060 | 150.51935 | 36100 ft | 499 kts | 321° |
| 2026-04-25 23:16 | -22.73065 | 150.48148 | 36090 ft | 498 kts | 321° |
| 2026-04-25 23:17 | -22.67081 | 150.44373 | 36093 ft | 497 kts | 321° |
| 2026-04-25 23:17 | -22.61090 | 150.40596 | 36097 ft | 498 kts | 321° |
| 2026-04-25 23:18 | -22.55091 | 150.36819 | 36091 ft | 496 kts | 321° |
| 2026-04-25 23:18 | -22.49127 | 150.33079 | 36091 ft | 497 kts | 322° |
| 2026-04-25 23:19 | -22.43142 | 150.29356 | 36087 ft | 497 kts | 322° |
| 2026-04-25 23:19 | -22.37158 | 150.25618 | 36079 ft | 495 kts | 322° |
| 2026-04-25 23:20 | -22.31180 | 150.21874 | 36076 ft | 494 kts | 322° |
| 2026-04-25 23:20 | -22.25261 | 150.18149 | 36075 ft | 495 kts | 321° |
| 2026-04-25 23:21 | -22.19383 | 150.14310 | 36068 ft | 493 kts | 320° |
| 2026-04-25 23:21 | -22.13508 | 150.10448 | 36067 ft | 492 kts | 321° |
| 2026-04-25 23:22 | -22.07684 | 150.06638 | 36068 ft | 491 kts | 320° |